createdAt,value
2022-12-23T00:01:41.460Z,4.07
2022-12-23T00:04:09.321Z,4.03
2022-12-23T00:06:37.021Z,4.01
2022-12-23T00:09:04.675Z,4.01
2022-12-23T00:11:32.376Z,3.99
2022-12-23T00:14:21.556Z,3.97
2022-12-23T00:16:50.732Z,3.97
2022-12-23T00:19:18.911Z,3.95
2022-12-23T00:21:48.255Z,3.94
2022-12-23T00:24:15.899Z,3.91
2022-12-23T00:26:43.526Z,3.90
2022-12-23T00:29:11.722Z,3.90
2022-12-23T00:31:39.420Z,3.89
2022-12-23T00:34:07.111Z,3.88
2022-12-23T00:36:34.847Z,3.88
2022-12-23T00:39:18.510Z,3.88
2022-12-23T00:42:02.121Z,3.89
2022-12-23T00:44:30.022Z,3.90
2022-12-23T00:46:57.892Z,3.92
2022-12-23T00:49:41.692Z,3.93
2022-12-23T00:52:10.905Z,3.96
2022-12-23T00:54:38.682Z,3.97
2022-12-23T00:57:06.586Z,4.00
2022-12-23T00:59:34.324Z,4.02
2022-12-23T01:02:18.098Z,4.01
2022-12-23T01:05:01.970Z,3.98
2022-12-23T01:07:29.641Z,3.94
2022-12-23T01:09:57.283Z,3.92
2022-12-23T01:12:25.015Z,3.92
2022-12-23T01:14:52.799Z,3.92
2022-12-23T01:17:20.605Z,3.91
2022-12-23T01:19:48.290Z,3.87
2022-12-23T01:22:15.965Z,3.86
2022-12-23T01:24:43.634Z,3.88
2022-12-23T01:27:11.229Z,3.89
2022-12-23T01:29:38.855Z,3.87
2022-12-23T01:32:06.632Z,3.84
2022-12-23T01:34:37.544Z,3.81
2022-12-23T01:37:05.656Z,3.80
2022-12-23T01:39:33.523Z,3.79
2022-12-23T01:42:17.186Z,3.77
2022-12-23T01:44:52.469Z,3.79
2022-12-23T01:47:20.124Z,3.78
2022-12-23T01:49:48.608Z,3.79
2022-12-23T01:52:16.419Z,3.79
2022-12-23T01:54:44.782Z,3.76
2022-12-23T01:57:12.785Z,3.74
2022-12-23T01:59:57.159Z,3.73
2022-12-23T02:02:42.541Z,3.72
2022-12-23T02:05:11.325Z,3.71
2022-12-23T02:07:55.773Z,3.69
2022-12-23T02:10:27.877Z,3.68
2022-12-23T02:12:58.504Z,3.70
2022-12-23T02:15:56.638Z,3.72
2022-12-23T02:18:30.490Z,3.74
2022-12-23T02:21:14.134Z,3.74
2022-12-23T02:23:57.738Z,3.78
2022-12-23T02:26:41.406Z,3.78
2022-12-23T02:29:15.195Z,3.76
2022-12-23T02:31:48.754Z,3.74
2022-12-23T02:34:18.690Z,3.71
2022-12-23T02:36:52.802Z,3.70
2022-12-23T02:39:24.436Z,3.71
2022-12-23T02:42:03.145Z,3.70
2022-12-23T02:44:36.296Z,3.70
2022-12-23T02:47:06.979Z,3.75
2022-12-23T02:49:37.882Z,3.82
2022-12-23T02:52:09.359Z,3.90
2022-12-23T02:54:41.021Z,3.95
2022-12-23T02:57:11.570Z,3.99
2022-12-23T02:59:41.687Z,3.99
2022-12-23T03:02:09.525Z,3.97
2022-12-23T03:04:38.116Z,3.96
2022-12-23T03:07:08.016Z,3.94
2022-12-23T03:09:39.405Z,3.92
2022-12-23T03:12:22.998Z,3.91
2022-12-23T03:15:01.749Z,3.90
2022-12-23T03:17:30.442Z,3.90
2022-12-23T03:20:14.185Z,3.90
2022-12-23T03:22:47.791Z,3.88
2022-12-23T03:25:22.004Z,3.84
2022-12-23T03:28:05.653Z,3.82
2022-12-23T03:30:34.321Z,3.78
2022-12-23T03:33:07.889Z,3.77
2022-12-23T03:35:38.335Z,3.76
2022-12-23T03:38:07.911Z,3.75
2022-12-23T03:40:38.438Z,3.76
2022-12-23T03:43:21.999Z,3.77
2022-12-23T03:45:54.022Z,3.73
2022-12-23T03:48:23.934Z,3.70
2022-12-23T03:50:54.053Z,3.69
2022-12-23T03:53:25.590Z,3.68
2022-12-23T03:55:56.663Z,3.68
2022-12-23T03:58:24.306Z,3.68
2022-12-23T04:00:59.800Z,3.69
2022-12-23T04:03:33.445Z,3.67
2022-12-23T04:06:02.118Z,3.66
2022-12-23T04:08:32.083Z,3.67
2022-12-23T04:11:00.679Z,3.65
2022-12-23T04:13:28.843Z,3.64
2022-12-23T04:16:00.263Z,3.59
2022-12-23T04:18:28.572Z,3.57
2022-12-23T04:20:56.322Z,3.55
2022-12-23T04:23:24.070Z,3.54
2022-12-23T04:25:51.734Z,3.55
2022-12-23T04:28:20.035Z,3.54
2022-12-23T04:30:47.703Z,3.53
2022-12-23T04:33:15.404Z,3.54
2022-12-23T04:35:43.117Z,3.53
2022-12-23T04:38:10.816Z,3.53
2022-12-23T04:40:38.547Z,3.52
2022-12-23T04:43:06.242Z,3.50
2022-12-23T04:45:34.007Z,3.48
2022-12-23T04:48:01.674Z,3.47
2022-12-23T04:50:29.301Z,3.45
2022-12-23T04:52:56.924Z,3.44
2022-12-23T04:55:24.525Z,3.44
2022-12-23T04:57:52.216Z,3.43
2022-12-23T05:00:20.658Z,3.41
2022-12-23T05:02:48.409Z,3.40
2022-12-23T05:05:16.262Z,3.38
2022-12-23T05:07:43.913Z,3.33
2022-12-23T05:10:11.579Z,3.29
2022-12-23T05:12:39.377Z,3.24
2022-12-23T05:15:07.867Z,3.21
2022-12-23T05:17:35.592Z,3.18
2022-12-23T05:20:03.337Z,3.17
2022-12-23T05:22:31.048Z,3.17
2022-12-23T05:24:58.708Z,3.16
2022-12-23T05:27:26.385Z,3.15
2022-12-23T05:29:54.066Z,3.14
2022-12-23T05:32:21.755Z,3.14
2022-12-23T05:34:49.405Z,3.15
2022-12-23T05:37:17.148Z,3.16
2022-12-23T05:39:44.816Z,3.14
2022-12-23T05:42:12.461Z,3.11
2022-12-23T05:44:40.104Z,3.09
2022-12-23T05:47:07.738Z,3.09
2022-12-23T05:49:35.415Z,3.10
2022-12-23T05:52:03.101Z,3.13
2022-12-23T05:54:33.686Z,3.16
2022-12-23T05:57:01.413Z,3.19
2022-12-23T05:59:31.348Z,3.21
2022-12-23T06:01:59.925Z,3.21
2022-12-23T06:04:28.045Z,3.19
2022-12-23T06:06:55.838Z,3.18
2022-12-23T06:09:23.510Z,3.20
2022-12-23T06:11:51.158Z,3.18
2022-12-23T06:14:21.475Z,3.18
2022-12-23T06:16:53.112Z,3.20
2022-12-23T06:19:20.850Z,3.21
2022-12-23T06:21:48.571Z,3.22
2022-12-23T06:24:16.341Z,3.21
2022-12-23T06:26:44.065Z,3.20
2022-12-23T06:29:11.736Z,3.20
2022-12-23T06:31:39.506Z,3.19
2022-12-23T06:34:07.240Z,3.18
2022-12-23T06:36:34.894Z,3.18
2022-12-23T06:39:02.558Z,3.18
2022-12-23T06:41:30.234Z,3.17
2022-12-23T06:43:57.943Z,3.16
2022-12-23T06:46:25.654Z,3.16
2022-12-23T06:48:53.329Z,3.15
2022-12-23T06:51:21.514Z,3.15
2022-12-23T06:53:49.143Z,3.15
2022-12-23T06:56:16.756Z,3.15
2022-12-23T06:58:45.000Z,3.13
2022-12-23T07:01:12.835Z,3.12
2022-12-23T07:03:40.671Z,3.10
2022-12-23T07:06:08.494Z,3.07
2022-12-23T07:08:36.187Z,3.04
2022-12-23T07:11:04.961Z,3.03
2022-12-23T07:13:33.096Z,3.03
2022-12-23T07:16:05.106Z,3.04
2022-12-23T07:18:32.955Z,3.06
2022-12-23T07:21:01.402Z,3.10
2022-12-23T07:23:29.186Z,3.13
2022-12-23T07:25:57.200Z,3.14
2022-12-23T07:28:24.923Z,3.16
2022-12-23T07:30:53.155Z,3.18
2022-12-23T07:33:24.511Z,3.20
2022-12-23T07:35:52.186Z,3.22
2022-12-23T07:38:19.859Z,3.24
2022-12-23T07:40:48.911Z,3.26
2022-12-23T07:43:16.650Z,3.29
2022-12-23T07:45:44.332Z,3.32
2022-12-23T07:48:12.060Z,3.36
2022-12-23T07:50:39.841Z,3.39
2022-12-23T07:53:07.805Z,3.41
2022-12-23T07:55:35.821Z,3.42
2022-12-23T07:58:03.463Z,3.43
2022-12-23T08:00:31.091Z,3.44
2022-12-23T08:02:58.981Z,3.46
2022-12-23T08:05:26.934Z,3.48
2022-12-23T08:07:54.863Z,3.49
2022-12-23T08:10:22.646Z,3.51
2022-12-23T08:12:50.368Z,3.50
2022-12-23T08:15:18.042Z,3.50
2022-12-23T08:17:45.715Z,3.50
2022-12-23T08:20:13.419Z,3.49
2022-12-23T08:22:41.107Z,3.52
2022-12-23T08:25:08.981Z,3.55
2022-12-23T08:27:36.799Z,3.58
2022-12-23T08:30:04.845Z,3.62
2022-12-23T08:32:32.534Z,3.65
2022-12-23T08:35:00.235Z,3.67
2022-12-23T08:37:27.914Z,3.69
2022-12-23T08:39:55.585Z,3.72
2022-12-23T08:42:23.267Z,3.73
2022-12-23T08:44:50.949Z,3.71
2022-12-23T08:47:18.622Z,3.72
2022-12-23T08:49:47.653Z,3.73
2022-12-23T08:52:15.375Z,3.74
2022-12-23T08:54:43.017Z,3.75
2022-12-23T08:57:10.763Z,3.78
2022-12-23T08:59:38.742Z,3.81
2022-12-23T09:02:06.489Z,3.83
2022-12-23T09:04:36.070Z,3.86
2022-12-23T09:07:03.800Z,3.88
2022-12-23T09:09:31.461Z,3.91
2022-12-23T09:12:01.484Z,3.94
2022-12-23T09:14:29.229Z,3.99
2022-12-23T09:16:56.929Z,4.01
2022-12-23T09:19:24.521Z,4.03
2022-12-23T09:21:52.161Z,4.07
2022-12-23T09:24:19.814Z,4.11
2022-12-23T09:26:47.475Z,4.14
2022-12-23T09:29:17.509Z,4.19
2022-12-23T09:31:45.233Z,4.21
2022-12-23T09:34:13.135Z,4.23
2022-12-23T09:36:40.775Z,4.26
2022-12-23T09:39:10.276Z,4.28
2022-12-23T09:41:44.106Z,4.28
2022-12-23T09:44:12.771Z,4.28
2022-12-23T09:46:47.171Z,4.27
2022-12-23T09:49:17.520Z,4.26
2022-12-23T09:51:47.051Z,4.26
2022-12-23T09:54:20.878Z,4.28
2022-12-23T09:56:53.850Z,4.29
2022-12-23T09:59:38.488Z,4.32
2022-12-23T10:02:22.376Z,4.33
2022-12-23T10:05:06.336Z,4.32
2022-12-23T10:07:37.573Z,4.31
2022-12-23T10:10:25.520Z,4.31
2022-12-23T10:12:53.895Z,4.32
2022-12-23T10:15:25.951Z,4.33
2022-12-23T10:17:56.249Z,4.34
2022-12-23T10:20:34.977Z,4.36
2022-12-23T10:23:02.733Z,4.38
2022-12-23T10:25:37.336Z,4.38
2022-12-23T10:28:05.335Z,4.43
2022-12-23T10:30:57.394Z,4.48
2022-12-23T10:33:37.838Z,4.55
2022-12-23T10:36:05.626Z,4.60
2022-12-23T10:38:36.211Z,4.61
2022-12-23T10:41:21.227Z,4.61
2022-12-23T10:43:51.998Z,4.62
2022-12-23T10:46:23.841Z,4.61
2022-12-23T10:49:07.592Z,4.59
2022-12-23T10:51:51.250Z,4.58
2022-12-23T10:54:35.972Z,4.55
2022-12-23T10:57:05.563Z,4.55
2022-12-23T10:59:34.397Z,4.56
2022-12-23T11:02:02.303Z,4.58
2022-12-23T11:04:37.191Z,4.57
2022-12-23T11:07:42.071Z,4.57
2022-12-23T11:09:57.991Z,4.59
2022-12-23T11:12:40.484Z,4.60
2022-12-23T11:15:25.967Z,4.60
2022-12-23T11:18:13.887Z,4.61
2022-12-23T11:20:42.651Z,4.63
2022-12-23T11:23:26.304Z,4.65
2022-12-23T11:26:01.930Z,4.63
2022-12-23T11:28:30.644Z,4.61
2022-12-23T11:31:08.652Z,4.62
2022-12-23T11:33:38.495Z,4.64
2022-12-23T11:36:12.124Z,4.70
2022-12-23T11:38:55.835Z,4.79
2022-12-23T11:41:26.707Z,4.86
2022-12-23T11:44:01.616Z,4.92
2022-12-23T11:46:31.291Z,4.96
2022-12-23T11:49:15.110Z,4.96
2022-12-23T11:51:44.407Z,4.96
2022-12-23T11:54:15.914Z,4.96
2022-12-23T11:56:44.328Z,4.95
2022-12-23T11:59:25.245Z,4.99
2022-12-23T12:01:53.680Z,5.04
2022-12-23T12:04:23.946Z,5.07
2022-12-23T12:06:56.575Z,5.14
2022-12-23T12:09:25.019Z,5.18
2022-12-23T12:11:54.928Z,5.20
2022-12-23T12:14:26.056Z,5.09
2022-12-23T12:16:57.777Z,4.97
2022-12-23T12:19:42.578Z,4.89
2022-12-23T12:22:13.944Z,4.83
2022-12-23T12:24:44.588Z,4.78
2022-12-23T12:27:12.261Z,4.74
2022-12-23T12:29:40.259Z,4.72
2022-12-23T12:32:24.072Z,4.72
2022-12-23T12:35:00.792Z,4.78
2022-12-23T12:37:36.774Z,4.88
2022-12-23T12:40:24.674Z,4.98
2022-12-23T12:43:01.824Z,5.08
2022-12-23T12:45:46.551Z,5.13
2022-12-23T12:48:30.412Z,5.05
2022-12-23T12:51:01.913Z,4.96
2022-12-23T12:53:30.261Z,4.91
2022-12-23T12:56:02.706Z,4.89
2022-12-23T12:58:31.214Z,4.91
2022-12-23T13:01:14.866Z,4.89
2022-12-23T13:03:51.085Z,4.93
2022-12-23T13:06:18.786Z,4.97
2022-12-23T13:09:03.510Z,4.97
2022-12-23T13:11:45.119Z,4.93
2022-12-23T13:14:21.250Z,4.87
2022-12-23T13:16:48.863Z,4.83
2022-12-23T13:19:23.352Z,4.83
2022-12-23T13:22:00.316Z,4.83
2022-12-23T13:24:45.054Z,4.87
2022-12-23T13:27:19.962Z,4.92
2022-12-23T13:29:47.606Z,4.93
2022-12-23T13:32:32.572Z,4.95
2022-12-23T13:35:16.193Z,4.94
2022-12-23T13:37:59.810Z,4.94
2022-12-23T13:40:34.172Z,4.93
2022-12-23T13:43:09.750Z,4.91
2022-12-23T13:45:38.629Z,4.91
2022-12-23T13:48:22.473Z,4.94
2022-12-23T13:50:53.561Z,4.98
2022-12-23T13:53:25.350Z,5.00
2022-12-23T13:55:57.353Z,5.04
2022-12-23T13:58:27.026Z,5.06
2022-12-23T14:01:10.790Z,5.08
2022-12-23T14:03:39.126Z,5.06
2022-12-23T14:06:22.893Z,5.01
2022-12-23T14:08:51.425Z,4.96
2022-12-23T14:11:23.278Z,4.98
2022-12-23T14:13:51.044Z,5.01
2022-12-23T14:16:34.744Z,5.03
2022-12-23T14:19:20.357Z,5.03
2022-12-23T14:22:04.013Z,4.99
2022-12-23T14:24:47.609Z,4.96
2022-12-23T14:27:30.864Z,4.88
2022-12-23T14:30:06.080Z,4.80
2022-12-23T14:32:40.437Z,4.76
2022-12-23T14:35:17.949Z,4.70
2022-12-23T14:38:01.528Z,4.62
2022-12-23T14:40:45.070Z,4.52
2022-12-23T14:43:28.721Z,4.44
2022-12-23T14:46:06.506Z,4.38
2022-12-23T14:48:34.317Z,4.32
2022-12-23T14:51:08.218Z,4.26
2022-12-23T14:53:37.675Z,4.22
2022-12-23T14:56:12.501Z,4.21
2022-12-23T14:58:46.051Z,4.18
2022-12-23T15:01:18.844Z,4.14
2022-12-23T15:03:48.613Z,4.13
2022-12-23T15:06:19.218Z,4.09
2022-12-23T15:08:48.478Z,4.08
2022-12-23T15:11:42.443Z,4.03
2022-12-23T15:14:15.934Z,4.02
2022-12-23T15:16:45.227Z,4.04
2022-12-23T15:19:29.075Z,4.01
2022-12-23T15:22:22.115Z,4.00
2022-12-23T15:24:51.803Z,4.01
2022-12-23T15:27:29.808Z,3.98
2022-12-23T15:29:58.343Z,3.96
2022-12-23T15:32:27.676Z,3.96
2022-12-23T15:34:58.541Z,3.91
2022-12-23T15:37:28.901Z,3.87
2022-12-23T15:40:04.788Z,3.85
2022-12-23T15:42:35.580Z,3.83
2022-12-23T15:45:23.537Z,3.82
2022-12-23T15:47:51.273Z,3.86
2022-12-23T15:50:19.208Z,3.90
2022-12-23T15:52:48.770Z,3.94
2022-12-23T15:55:33.703Z,3.98
2022-12-23T15:58:02.886Z,3.99
2022-12-23T16:00:41.873Z,3.97
2022-12-23T16:03:25.706Z,3.95
2022-12-23T16:05:53.952Z,3.90
2022-12-23T16:08:30.257Z,3.86
2022-12-23T16:11:15.492Z,3.82
2022-12-23T16:13:59.435Z,3.78
2022-12-23T16:16:43.348Z,3.77
2022-12-23T16:19:27.193Z,3.74
2022-12-23T16:21:55.128Z,3.72
2022-12-23T16:24:22.956Z,3.71
2022-12-23T16:26:50.700Z,3.69
2022-12-23T16:29:18.360Z,3.68
2022-12-23T16:31:52.158Z,3.68
2022-12-23T16:34:22.194Z,3.67
2022-12-23T16:36:50.051Z,3.70
2022-12-23T16:39:22.179Z,3.71
2022-12-23T16:41:50.615Z,3.69
2022-12-23T16:44:18.594Z,3.63
2022-12-23T16:46:48.717Z,3.56
2022-12-23T16:49:21.087Z,3.45
2022-12-23T16:51:49.130Z,3.35
2022-12-23T16:54:20.515Z,3.27
2022-12-23T16:56:50.019Z,3.21
2022-12-23T16:59:23.724Z,3.17
2022-12-23T17:01:51.904Z,3.16
2022-12-23T17:04:25.366Z,3.17
2022-12-23T17:06:53.140Z,3.17
2022-12-23T17:09:20.974Z,3.16
2022-12-23T17:11:50.896Z,3.17
2022-12-23T17:14:20.408Z,3.15
2022-12-23T17:16:48.696Z,3.12
2022-12-23T17:19:20.656Z,3.09
2022-12-23T17:21:55.489Z,3.06
2022-12-23T17:24:25.525Z,3.03
2022-12-23T17:26:54.398Z,3.02
2022-12-23T17:29:22.083Z,3.01
2022-12-23T17:31:50.151Z,3.03
2022-12-23T17:34:19.246Z,3.04
2022-12-23T17:36:50.358Z,3.07
2022-12-23T17:39:19.462Z,3.12
2022-12-23T17:41:47.724Z,3.18
2022-12-23T17:44:16.706Z,3.27
2022-12-23T17:46:45.353Z,3.32
2022-12-23T17:49:13.034Z,3.35
2022-12-23T17:51:41.465Z,3.36
2022-12-23T17:54:20.330Z,3.38
2022-12-23T17:56:48.283Z,3.39
2022-12-23T17:59:16.276Z,3.38
2022-12-23T18:01:44.069Z,3.38
2022-12-23T18:04:11.754Z,3.33
2022-12-23T18:06:39.462Z,3.30
2022-12-23T18:09:07.119Z,3.30
2022-12-23T18:11:36.753Z,3.31
2022-12-23T18:14:04.748Z,3.28
2022-12-23T18:16:32.512Z,3.27
2022-12-23T18:19:00.182Z,3.25
2022-12-23T18:21:28.933Z,3.23
2022-12-23T18:23:58.641Z,3.20
2022-12-23T18:26:26.529Z,3.20
2022-12-23T18:28:54.761Z,3.23
2022-12-23T18:31:24.341Z,3.30
2022-12-23T18:33:53.344Z,3.38
2022-12-23T18:36:25.315Z,3.45
2022-12-23T18:38:53.706Z,3.52
2022-12-23T18:41:21.849Z,3.56
2022-12-23T18:43:50.574Z,3.60
2022-12-23T18:46:20.054Z,3.62
2022-12-23T18:48:48.353Z,3.57
2022-12-23T18:51:16.873Z,3.53
2022-12-23T18:53:45.085Z,3.49
2022-12-23T18:56:14.022Z,3.46
2022-12-23T18:58:42.096Z,3.44
2022-12-23T19:01:13.940Z,3.43
2022-12-23T19:03:41.804Z,3.43
2022-12-23T19:06:11.747Z,3.48
2022-12-23T19:08:39.519Z,3.52
2022-12-23T19:11:14.471Z,3.56
2022-12-23T19:13:42.449Z,3.60
2022-12-23T19:16:15.044Z,3.63
2022-12-23T19:18:43.159Z,3.63
2022-12-23T19:21:11.102Z,3.64
2022-12-23T19:23:39.946Z,3.65
2022-12-23T19:26:14.006Z,3.66
2022-12-23T19:28:41.981Z,3.66
2022-12-23T19:31:14.468Z,3.67
2022-12-23T19:33:43.982Z,3.67
2022-12-23T19:36:22.556Z,3.65
2022-12-23T19:38:51.289Z,3.65
2022-12-23T19:41:19.179Z,3.64
2022-12-23T19:43:48.048Z,3.65
2022-12-23T19:46:16.777Z,3.64
2022-12-23T19:48:49.461Z,3.63
2022-12-23T19:51:17.496Z,3.62
2022-12-23T19:53:46.182Z,3.63
2022-12-23T19:56:15.383Z,3.64
2022-12-23T19:58:45.927Z,3.62
2022-12-23T20:01:13.757Z,3.56
2022-12-23T20:03:42.219Z,3.52
2022-12-23T20:06:30.491Z,3.47
2022-12-23T20:09:03.939Z,3.39
2022-12-23T20:11:57.958Z,3.36
2022-12-23T20:14:29.055Z,3.32
2022-12-23T20:17:00.514Z,3.31
2022-12-23T20:19:28.234Z,3.29
2022-12-23T20:21:55.982Z,3.27
2022-12-23T20:24:23.728Z,3.27
2022-12-23T20:26:51.540Z,3.27
2022-12-23T20:29:19.201Z,3.27
2022-12-23T20:31:46.895Z,3.27
2022-12-23T20:34:15.680Z,3.28
2022-12-23T20:36:43.839Z,3.29
2022-12-23T20:39:11.619Z,3.31
2022-12-23T20:41:39.344Z,3.33
2022-12-23T20:44:33.739Z,3.32
2022-12-23T20:46:54.855Z,3.30
2022-12-23T20:49:22.694Z,3.26
2022-12-23T20:51:50.650Z,3.26
2022-12-23T20:54:19.830Z,3.27
2022-12-23T20:56:47.613Z,3.31
2022-12-23T20:59:15.422Z,3.32
2022-12-23T21:01:43.259Z,3.32
2022-12-23T21:04:12.988Z,3.32
2022-12-23T21:06:40.699Z,3.31
2022-12-23T21:09:09.600Z,3.31
2022-12-23T21:11:38.454Z,3.33
2022-12-23T21:14:07.947Z,3.37
2022-12-23T21:16:36.760Z,3.40
2022-12-23T21:19:05.278Z,3.44
2022-12-23T21:21:33.512Z,3.51
2022-12-23T21:24:04.025Z,3.55
2022-12-23T21:26:32.897Z,3.55
2022-12-23T21:29:01.443Z,3.51
2022-12-23T21:31:30.083Z,3.47
2022-12-23T21:33:58.395Z,3.42
2022-12-23T21:36:28.115Z,3.37
2022-12-23T21:38:55.929Z,3.35
2022-12-23T21:41:25.313Z,3.37
2022-12-23T21:43:53.548Z,3.39
2022-12-23T21:46:22.226Z,3.40
2022-12-23T21:48:50.129Z,3.41
2022-12-23T21:51:20.013Z,3.41
2022-12-23T21:53:48.948Z,3.39
2022-12-23T21:56:17.869Z,3.40
2022-12-23T21:58:45.996Z,3.41
2022-12-23T22:01:18.141Z,3.41
2022-12-23T22:03:47.281Z,3.43
2022-12-23T22:06:15.897Z,3.45
2022-12-23T22:08:43.915Z,3.47
2022-12-23T22:11:16.283Z,3.48
2022-12-23T22:13:44.836Z,3.51
2022-12-23T22:16:14.810Z,3.57
2022-12-23T22:18:43.011Z,3.60
2022-12-23T22:21:13.203Z,3.62
2022-12-23T22:23:41.337Z,3.63
2022-12-23T22:26:11.950Z,3.66
2022-12-23T22:28:40.123Z,3.67
2022-12-23T22:31:23.864Z,3.68
2022-12-23T22:33:51.820Z,3.64
2022-12-23T22:36:19.830Z,3.61
2022-12-23T22:38:55.204Z,3.60
2022-12-23T22:41:23.756Z,3.60
2022-12-23T22:43:51.504Z,3.60
2022-12-23T22:46:19.729Z,3.59
2022-12-23T22:48:47.618Z,3.54
2022-12-23T22:51:21.112Z,3.48
2022-12-23T22:53:49.162Z,3.44
2022-12-23T22:56:17.638Z,3.39
2022-12-23T22:58:45.327Z,3.34
2022-12-23T23:01:21.721Z,3.30
2022-12-23T23:03:54.192Z,3.29
2022-12-23T23:06:22.582Z,3.28
2022-12-23T23:08:50.242Z,3.29
2022-12-23T23:11:18.103Z,3.29
2022-12-23T23:13:45.896Z,3.28
2022-12-23T23:16:13.647Z,3.28
2022-12-23T23:18:41.495Z,3.27
2022-12-23T23:21:11.223Z,3.27
2022-12-23T23:23:38.894Z,3.28
2022-12-23T23:26:08.687Z,3.29
2022-12-23T23:28:37.395Z,3.29
2022-12-23T23:31:39.731Z,3.29
2022-12-23T23:33:54.309Z,3.27
2022-12-23T23:36:22.035Z,3.25
2022-12-23T23:38:49.715Z,3.18
2022-12-23T23:41:22.817Z,3.14
2022-12-23T23:43:52.053Z,3.07
2022-12-23T23:46:20.104Z,3.00
2022-12-23T23:48:47.866Z,2.97
2022-12-23T23:51:15.689Z,2.96
2022-12-23T23:53:43.362Z,2.98
2022-12-23T23:56:11.073Z,2.99
2022-12-23T23:58:38.782Z,3.01
